Stige, Denmark
Current Conditions -  °F | °C
As of 4:50 PM on Saturday 22 Nov 2014 (Local Time) from EKSB Reporting Station
Rain Showers Rain Showers  
Wind Chill: 37°   Ceiling: 2200
Heat Index: 43°   Visibility: 4mi
Dew Point: 39°   Wind: 12mph
Humidity: 87%   Direction: 140°SE
Pressure: 30.15"   Gusts: NA
Location:  55.44°N, 10.41°E
Report Text: EKSB 221550Z 14010KT 6000 -SHRA BKN022 06/04 Q1021
Loading
Personal Weather Stations






























Interactive Weather Map New forecast layout! Learn more

10-Day Weather Forecast

Advertisements
Track Severe Weather on mobile